Time;durP1;ratioP1;P1;durP2;ratioP2;P2;SDS_P1;SDS_P2;PMS_P1;PMS_P2;Temp;Humidity;BMP_temperature;BMP_pressure;BME280_temperature;BME280_humidity;BME280_pressure;Samples;Min_cycle;Max_cycle;Signal;HPM_P1;HPM_P2
2022/10/28 00:01:19;;;;;;;16.52;8.05;;;;;;;13.74;97.99;101658.72;4990885;28;20161;-75
2022/10/28 00:03:49;;;;;;;17.25;8.20;;;;;;;13.69;98.29;101659.06;4991551;28;20042;-75
2022/10/28 00:06:24;;;;;;;13.43;7.65;;;;;;;13.65;98.65;101659.38;4991555;28;20097;-75
2022/10/28 00:08:49;;;;;;;16.30;8.80;;;;;;;13.62;99.05;101652.28;4990090;28;20077;-75
2022/10/28 00:11:19;;;;;;;18.38;6.97;;;;;;;13.59;98.14;101651.63;4991536;28;20067;-74
2022/10/28 00:13:45;;;;;;;11.23;7.32;;;;;;;13.56;97.80;101652.72;4979672;28;20042;-75
2022/10/28 00:16:16;;;;;;;14.40;7.63;;;;;;;13.54;98.29;101657.44;4990898;28;20081;-75
2022/10/28 00:18:43;;;;;;;15.02;8.70;;;;;;;13.51;98.11;101647.56;4991469;28;20061;-75
2022/10/28 00:21:12;;;;;;;12.65;7.53;;;;;;;13.46;97.51;101655.22;4989363;28;20046;-75
2022/10/28 00:23:38;;;;;;;12.35;7.45;;;;;;;13.41;96.54;101654.69;4990769;28;20432;-75
2022/10/28 00:26:05;;;;;;;18.60;7.95;;;;;;;13.38;97.35;101654.94;4990680;28;20109;-75
2022/10/28 00:28:31;;;;;;;15.68;7.72;;;;;;;13.28;97.41;101649.22;4990697;28;20164;-75
2022/10/28 00:31:02;;;;;;;18.92;6.97;;;;;;;13.21;97.92;101657.94;4988933;28;20484;-76
2022/10/28 00:33:27;;;;;;;13.95;7.57;;;;;;;13.16;97.56;101657.41;5009926;28;20044;-75
2022/10/28 00:35:53;;;;;;;14.15;7.30;;;;;;;13.13;97.64;101650.28;5010011;28;20455;-75
2022/10/28 00:38:18;;;;;;;13.38;7.97;;;;;;;13.07;98.00;101642.53;5004496;28;21853;-75
2022/10/28 00:40:43;;;;;;;13.68;7.10;;;;;;;13.02;97.77;101648.31;4990263;28;20486;-75
2022/10/28 00:43:11;;;;;;;14.52;8.57;;;;;;;13.02;98.87;101652.91;4990463;28;20425;-75
2022/10/28 00:45:37;;;;;;;14.38;8.07;;;;;;;13.00;98.98;101646.66;4998339;28;20033;-75
2022/10/28 00:48:04;;;;;;;15.27;8.23;;;;;;;12.98;99.80;101640.44;4992970;28;20074;-75
2022/10/28 00:50:43;;;;;;;11.20;8.13;;;;;;;12.98;99.93;101646.78;4990327;28;20049;-75
2022/10/28 00:53:14;;;;;;;14.07;8.68;;;;;;;12.96;100.00;101637.81;4993545;28;20425;-75
2022/10/28 00:55:41;;;;;;;24.92;10.05;;;;;;;12.96;100.00;101632.34;4989095;28;20034;-75
2022/10/28 00:58:08;;;;;;;19.83;8.45;;;;;;;12.92;100.00;101621.75;4992619;28;20036;-74
2022/10/28 01:00:33;;;;;;;18.45;8.80;;;;;;;12.87;98.81;101621.16;5000284;28;20421;-75
2022/10/28 01:02:59;;;;;;;14.35;7.47;;;;;;;12.82;98.08;101610.56;4988914;28;20044;-75
2022/10/28 01:05:30;;;;;;;16.23;8.50;;;;;;;12.82;99.14;101601.50;4989902;28;20434;-75
2022/10/28 01:07:59;;;;;;;18.75;8.40;;;;;;;12.75;98.81;101606.53;5004031;28;20117;-75
2022/10/28 01:10:39;;;;;;;17.55;8.85;;;;;;;12.72;99.28;101602.16;4989924;28;20037;-75
2022/10/28 01:13:10;;;;;;;20.33;8.52;;;;;;;12.69;98.95;101601.50;4989393;28;20038;-75
2022/10/28 01:15:48;;;;;;;16.00;8.85;;;;;;;12.68;99.93;101597.00;4989328;28;20030;-74
2022/10/28 01:18:39;;;;;;;14.30;8.27;;;;;;;12.65;98.45;101598.09;4990198;28;20046;-75
2022/10/28 01:21:26;;;;;;;13.50;7.53;;;;;;;12.61;98.07;101601.16;4988258;28;20188;-75
2022/10/28 01:24:00;;;;;;;15.75;7.78;;;;;;;12.60;99.07;101596.69;5005978;28;20034;-74
2022/10/28 01:26:39;;;;;;;12.18;7.40;;;;;;;12.59;98.83;101605.81;5007919;28;20140;-75
2022/10/28 01:29:48;;;;;;;20.92;7.97;;;;;;;12.56;98.65;101609.66;4989361;28;20038;-75
2022/10/28 01:32:20;;;;;;;15.23;8.95;;;;;;;12.55;99.25;101601.59;4964177;28;20383;-75
2022/10/28 01:35:10;;;;;;;12.23;7.30;;;;;;;12.52;98.04;101600.78;4988372;28;20057;-75
2022/10/28 01:38:02;;;;;;;20.60;7.82;;;;;;;12.46;98.19;101589.44;4989579;28;20042;-75
2022/10/28 01:40:42;;;;;;;17.38;7.43;;;;;;;12.46;97.84;101594.91;4989508;28;20073;-75
2022/10/28 01:43:19;;;;;;;21.30;7.53;;;;;;;12.41;98.14;101595.22;4989309;28;20038;-75
2022/10/28 01:46:14;;;;;;;15.00;7.97;;;;;;;12.39;98.42;101596.28;4996232;28;20081;-75
2022/10/28 01:48:52;;;;;;;13.85;7.68;;;;;;;12.36;98.39;101593.78;4988722;28;20509;-75
2022/10/28 01:51:30;;;;;;;14.88;8.30;;;;;;;12.33;98.53;101588.53;5001559;28;20049;-75
2022/10/28 01:53:58;;;;;;;13.90;8.00;;;;;;;12.31;99.42;101594.09;4989351;28;20030;-75
2022/10/28 01:56:29;;;;;;;12.35;7.88;;;;;;;12.29;98.23;101589.69;4988057;28;20034;-75
2022/10/28 01:58:58;;;;;;;15.70;7.38;;;;;;;12.28;98.32;101594.28;4999179;28;20038;-75
2022/10/28 02:01:24;;;;;;;11.85;7.47;;;;;;;12.24;98.81;101590.88;4991900;28;20137;-74
2022/10/28 02:03:51;;;;;;;11.32;7.75;;;;;;;12.26;99.08;101579.84;4989366;28;20806;-74
2022/10/28 02:06:21;;;;;;;15.20;7.88;;;;;;;12.24;98.40;101585.44;4989479;28;20042;-75
2022/10/28 02:08:58;;;;;;;15.77;8.27;;;;;;;12.21;98.91;101584.75;4988181;28;20042;-75
2022/10/28 02:11:33;;;;;;;19.70;8.45;;;;;;;12.21;100.00;101585.63;4988911;28;20520;-75
2022/10/28 02:14:21;;;;;;;20.90;8.40;;;;;;;12.23;100.00;101580.97;4999510;28;20220;-75
2022/10/28 02:17:05;;;;;;;13.68;8.13;;;;;;;12.22;100.00;101581.06;4995960;28;20060;-75
2022/10/28 02:20:01;;;;;;;14.73;8.25;;;;;;;12.16;99.49;101584.19;5008803;28;20153;-75
2022/10/28 02:22:58;;;;;;;16.75;8.15;;;;;;;12.14;100.00;101580.72;5001557;28;20034;-75
2022/10/28 02:25:32;;;;;;;16.15;9.55;;;;;;;12.08;99.65;101587.47;4957175;28;20489;-75
2022/10/28 02:28:05;;;;;;;13.55;7.85;;;;;;;12.07;100.00;101590.25;4971336;28;20090;-75
2022/10/28 02:30:39;;;;;;;17.05;8.25;;;;;;;12.03;99.58;101581.44;4988708;28;20042;-75
2022/10/28 02:33:09;;;;;;;14.35;7.47;;;;;;;11.99;100.00;101571.72;4988889;28;20128;-75
2022/10/28 02:35:40;;;;;;;13.05;7.95;;;;;;;11.98;100.00;101575.38;4988599;28;20490;-75
2022/10/28 02:38:13;;;;;;;13.95;7.35;;;;;;;11.93;100.00;101575.69;4988926;28;20031;-75
2022/10/28 02:40:44;;;;;;;15.63;8.75;;;;;;;11.91;100.00;101565.88;4989258;28;20489;-75
2022/10/28 02:43:12;;;;;;;16.23;7.75;;;;;;;11.90;99.55;101578.66;4988916;28;20113;-75
2022/10/28 02:45:41;;;;;;;14.90;7.78;;;;;;;11.87;100.00;101565.19;4988698;28;20054;-75
2022/10/28 02:48:19;;;;;;;12.65;6.82;;;;;;;11.91;100.00;101574.06;5004836;28;20161;-75
2022/10/28 02:50:51;;;;;;;16.63;8.00;;;;;;;11.93;100.00;101575.69;4993763;28;20038;-75
2022/10/28 02:53:28;;;;;;;12.68;7.05;;;;;;;11.93;100.00;101577.53;4987523;28;20037;-75
2022/10/28 02:55:58;;;;;;;15.48;7.60;;;;;;;11.94;100.00;101580.19;4976927;28;20128;-75
2022/10/28 02:58:23;;;;;;;16.17;8.32;;;;;;;12.02;100.00;101576.94;5001684;28;20045;-75
2022/10/28 03:00:49;;;;;;;19.00;7.75;;;;;;;11.97;100.00;101569.06;4998340;28;20109;-75
2022/10/28 03:03:15;;;;;;;18.30;7.78;;;;;;;11.95;100.00;101562.84;4990169;28;20180;-75
2022/10/28 03:05:40;;;;;;;13.82;7.45;;;;;;;11.97;100.00;101565.47;4990011;28;20076;-75
2022/10/28 03:08:05;;;;;;;12.70;7.38;;;;;;;11.95;100.00;101560.13;4991917;28;20035;-75
2022/10/28 03:10:31;;;;;;;13.68;7.68;;;;;;;11.94;100.00;101563.84;4991060;28;20084;-75
2022/10/28 03:12:56;;;;;;;16.33;7.45;;;;;;;11.92;100.00;101563.03;4993839;28;20084;-75
2022/10/28 03:15:21;;;;;;;15.02;6.85;;;;;;;11.96;100.00;101561.88;5004886;28;20027;-75
2022/10/28 03:17:47;;;;;;;10.95;6.75;;;;;;;11.95;100.00;101564.69;4992459;28;20069;-75
2022/10/28 03:20:12;;;;;;;14.95;7.22;;;;;;;11.93;100.00;101564.78;4991618;28;20038;-76
2022/10/28 03:22:37;;;;;;;13.13;7.13;;;;;;;11.93;100.00;101562.06;4993155;28;20137;-76
2022/10/28 03:25:03;;;;;;;15.52;7.68;;;;;;;11.96;100.00;101566.44;4991255;28;20050;-75
2022/10/28 03:27:29;;;;;;;18.67;7.43;;;;;;;12.01;100.00;101567.00;4992891;28;20061;-75
2022/10/28 03:29:54;;;;;;;18.20;8.30;;;;;;;12.02;100.00;101562.44;4992075;28;20049;-75
2022/10/28 03:32:20;;;;;;;13.80;7.47;;;;;;;12.02;100.00;101556.97;4990746;28;20046;-75
2022/10/28 03:34:46;;;;;;;16.63;6.88;;;;;;;12.08;100.00;101564.75;4990066;28;20042;-75
2022/10/28 03:37:12;;;;;;;14.20;6.57;;;;;;;12.07;100.00;101557.53;4991328;28;20062;-75
2022/10/28 03:39:37;;;;;;;15.88;6.60;;;;;;;12.03;100.00;101556.00;4991778;28;20041;-75
2022/10/28 03:42:03;;;;;;;11.30;6.75;;;;;;;12.00;100.00;101551.63;4991626;28;20030;-76
2022/10/28 03:44:28;;;;;;;13.90;6.25;;;;;;;12.02;100.00;101555.13;4991550;28;20030;-75
2022/10/28 03:46:53;;;;;;;13.90;6.63;;;;;;;11.99;100.00;101564.41;4991220;28;20049;-75
2022/10/28 03:49:19;;;;;;;14.50;6.95;;;;;;;11.97;100.00;101552.69;4989963;28;20043;-75
2022/10/28 03:51:44;;;;;;;11.60;6.57;;;;;;;11.98;100.00;101557.19;5005912;28;20041;-75
2022/10/28 03:54:09;;;;;;;25.20;7.07;;;;;;;11.97;100.00;101551.81;4990119;28;20046;-75
2022/10/28 03:56:35;;;;;;;19.45;7.28;;;;;;;11.92;100.00;101552.13;4991304;28;20049;-76
2022/10/28 03:59:00;;;;;;;17.52;6.90;;;;;;;11.94;100.00;101549.31;4991123;28;20046;-75
2022/10/28 04:01:25;;;;;;;22.02;7.28;;;;;;;11.96;100.00;101548.22;4990768;28;20500;-75
2022/10/28 04:03:51;;;;;;;12.50;6.32;;;;;;;11.96;100.00;101550.97;4991085;28;20023;-75
2022/10/28 04:06:16;;;;;;;12.73;7.18;;;;;;;11.91;100.00;101546.78;4991539;28;20041;-76
2022/10/28 04:08:41;;;;;;;15.75;7.00;;;;;;;11.93;100.00;101553.00;4989700;28;20034;-75
2022/10/28 04:11:07;;;;;;;14.30;6.43;;;;;;;11.92;100.00;101551.25;4990826;28;20177;-75
2022/10/28 04:13:32;;;;;;;11.05;6.43;;;;;;;11.93;100.00;101547.56;5002879;28;20050;-75
2022/10/28 04:15:58;;;;;;;21.60;7.20;;;;;;;11.91;100.00;101550.38;4989672;28;20077;-75
2022/10/28 04:18:23;;;;;;;8.82;6.53;;;;;;;11.88;100.00;101564.22;5007195;28;20486;-75
2022/10/28 04:20:48;;;;;;;14.15;5.15;;;;;;;11.90;100.00;101561.41;5010382;28;20057;-75
2022/10/28 04:23:17;;;;;;;13.65;6.00;;;;;;;11.92;100.00;101570.34;4995931;28;20501;-75
2022/10/28 04:25:42;;;;;;;14.93;6.00;;;;;;;12.02;100.00;101565.16;4990969;28;20121;-75
2022/10/28 04:28:08;;;;;;;14.18;6.68;;;;;;;12.03;100.00;101561.44;4992645;28;20545;-75
2022/10/28 04:30:33;;;;;;;9.68;6.50;;;;;;;12.09;100.00;101558.31;4990267;28;20049;-76
2022/10/28 04:32:58;;;;;;;17.50;6.40;;;;;;;12.06;100.00;101551.22;4989737;28;20105;-75
2022/10/28 04:35:24;;;;;;;18.98;6.53;;;;;;;12.12;100.00;101560.81;4997251;28;20059;-75
2022/10/28 04:37:49;;;;;;;18.27;6.30;;;;;;;12.21;100.00;101557.47;5000246;28;20117;-75
2022/10/28 04:40:15;;;;;;;14.40;7.10;;;;;;;12.25;100.00;101559.88;4997643;28;20061;-75
2022/10/28 04:42:40;;;;;;;18.75;6.35;;;;;;;12.21;100.00;101552.88;4989931;28;20026;-75
2022/10/28 04:45:06;;;;;;;13.43;6.43;;;;;;;12.21;100.00;101560.19;4990370;28;20037;-75
2022/10/28 04:47:32;;;;;;;15.73;6.68;;;;;;;12.19;100.00;101559.44;4995799;28;20139;-75
2022/10/28 04:49:57;;;;;;;20.38;7.10;;;;;;;12.17;100.00;101558.66;5008467;28;20533;-75
2022/10/28 04:52:22;;;;;;;17.08;6.32;;;;;;;12.20;100.00;101553.00;5006265;28;20497;-75
2022/10/28 04:54:48;;;;;;;12.25;6.65;;;;;;;12.16;100.00;101555.06;5008604;28;20034;-75
2022/10/28 04:57:13;;;;;;;13.88;6.60;;;;;;;12.14;100.00;101553.44;4997410;28;20113;-75
2022/10/28 04:59:38;;;;;;;11.20;5.90;;;;;;;12.12;100.00;101550.78;4996005;28;20099;-75
2022/10/28 05:02:04;;;;;;;15.50;6.30;;;;;;;12.16;100.00;101548.72;4996180;28;20504;-75
2022/10/28 05:04:29;;;;;;;17.83;6.80;;;;;;;12.14;100.00;101547.97;5005507;28;20173;-76
2022/10/28 05:06:54;;;;;;;12.23;5.88;;;;;;;12.14;100.00;101547.97;4993994;28;20644;-75
2022/10/28 05:09:20;;;;;;;14.90;5.78;;;;;;;12.14;100.00;101557.03;4990180;28;20470;-75
2022/10/28 05:11:45;;;;;;;18.58;6.60;;;;;;;12.14;100.00;101553.44;4990069;28;20490;-75
2022/10/28 05:14:10;;;;;;;17.20;5.65;;;;;;;12.10;100.00;101550.03;4989765;28;20026;-75
2022/10/28 05:16:36;;;;;;;9.93;6.20;;;;;;;12.07;100.00;101552.09;4990131;28;20036;-75
2022/10/28 05:19:01;;;;;;;21.15;6.15;;;;;;;12.09;100.00;101551.00;5009102;28;20069;-75
2022/10/28 05:21:27;;;;;;;17.23;6.18;;;;;;;12.11;100.00;101557.22;4999474;28;20041;-75
2022/10/28 05:23:52;;;;;;;16.50;6.15;;;;;;;12.11;100.00;101557.22;4981239;28;20037;-75
2022/10/28 05:26:17;;;;;;;14.32;6.75;;;;;;;12.13;100.00;101548.97;5004615;28;20045;-75
2022/10/28 05:28:43;;;;;;;14.30;6.15;;;;;;;12.08;100.00;101535.63;5007244;28;20076;-75
2022/10/28 05:31:09;;;;;;;17.52;6.18;;;;;;;12.09;100.00;101545.56;4996321;28;20026;-75
2022/10/28 05:33:34;;;;;;;13.82;5.57;;;;;;;12.00;100.00;101538.88;5008384;28;20128;-76
2022/10/28 05:36:00;;;;;;;12.65;5.05;;;;;;;12.01;100.00;101542.47;5008432;28;20133;-75
2022/10/28 05:38:26;;;;;;;8.90;5.88;;;;;;;12.00;100.00;101546.19;4991217;28;20042;-75
2022/10/28 05:40:52;;;;;;;17.83;6.22;;;;;;;12.00;100.00;101540.72;4989535;28;20026;-75
2022/10/28 05:43:18;;;;;;;17.98;6.82;;;;;;;12.08;100.00;101545.69;4992555;28;20072;-75
2022/10/28 05:45:43;;;;;;;10.98;5.78;;;;;;;12.10;100.00;101547.31;5000735;28;20479;-75
2022/10/28 05:48:09;;;;;;;14.52;6.30;;;;;;;12.14;100.00;101545.25;5004903;28;20053;-75
2022/10/28 05:50:34;;;;;;;13.45;5.63;;;;;;;12.06;100.00;101547.59;5002263;28;20102;-75
2022/10/28 05:53:00;;;;;;;19.08;6.22;;;;;;;12.09;100.00;101547.41;4989286;28;20486;-75
2022/10/28 05:55:28;;;;;;;12.10;6.07;;;;;;;12.02;100.00;101540.59;5009014;28;20034;-76
2022/10/28 05:57:54;;;;;;;14.98;6.18;;;;;;;12.00;100.00;101541.59;5007096;28;20037;-75
2022/10/28 06:00:21;;;;;;;23.05;6.57;;;;;;;12.08;100.00;101541.09;4987550;28;20037;-75
2022/10/28 06:02:47;;;;;;;13.35;5.57;;;;;;;12.10;100.00;101544.56;4988083;28;20577;-75
2022/10/28 06:05:13;;;;;;;21.02;7.90;;;;;;;12.17;100.00;101545.03;4987256;28;20149;-75
2022/10/28 06:07:39;;;;;;;19.02;6.40;;;;;;;12.20;100.00;101542.09;4987532;28;20038;-75
2022/10/28 06:10:06;;;;;;;15.95;6.28;;;;;;;12.18;100.00;101546.78;4988832;28;20440;-75
2022/10/28 06:12:31;;;;;;;15.50;6.07;;;;;;;12.19;100.00;101548.53;4987570;28;20034;-75
2022/10/28 06:14:57;;;;;;;18.33;6.55;;;;;;;12.24;100.00;101549.97;4986684;28;20106;-75
2022/10/28 06:17:22;;;;;;;14.75;5.63;;;;;;;12.23;100.00;101555.53;4988657;28;20414;-75
2022/10/28 06:19:48;;;;;;;13.68;6.55;;;;;;;12.27;100.00;101561.66;4988617;28;20124;-75
2022/10/28 06:22:13;;;;;;;13.30;6.25;;;;;;;12.26;100.00;101558.03;4987653;28;20514;-75
2022/10/28 06:24:39;;;;;;;16.67;6.10;;;;;;;12.27;100.00;101564.41;4988693;28;20019;-75
2022/10/28 06:27:04;;;;;;;13.27;5.95;;;;;;;12.22;100.00;101559.25;4988396;28;20038;-75
2022/10/28 06:29:31;;;;;;;16.48;6.85;;;;;;;12.25;100.00;101557.16;4988600;28;20359;-75
2022/10/28 06:31:56;;;;;;;15.63;6.72;;;;;;;12.36;100.00;101558.31;4999069;28;20022;-75
2022/10/28 06:34:22;;;;;;;16.45;6.30;;;;;;;12.39;100.00;101549.88;4988592;28;20144;-74
2022/10/28 06:36:47;;;;;;;14.20;6.43;;;;;;;12.39;100.00;101560.81;4988937;28;20117;-75
2022/10/28 06:39:12;;;;;;;17.23;6.10;;;;;;;12.45;100.00;101554.91;5002711;28;20514;-75
2022/10/28 06:41:38;;;;;;;21.83;6.43;;;;;;;12.51;100.00;101552.66;5012326;28;20040;-75
2022/10/28 06:44:03;;;;;;;19.45;6.82;;;;;;;12.55;100.00;101555.19;4995496;28;20601;-75
2022/10/28 06:46:29;;;;;;;16.25;6.80;;;;;;;12.59;100.00;101556.69;4990524;28;20057;-75
2022/10/28 06:48:54;;;;;;;13.30;7.22;;;;;;;12.66;100.00;101550.72;4992179;28;20068;-75
2022/10/28 06:51:20;;;;;;;21.90;7.30;;;;;;;12.71;100.00;101551.25;4992074;28;20502;-75
2022/10/28 06:53:49;;;;;;;20.23;5.82;;;;;;;12.76;100.00;101543.63;4992203;28;20034;-76
2022/10/28 06:56:14;;;;;;;18.13;6.88;;;;;;;12.73;100.00;101549.31;4992486;28;20069;-75
2022/10/28 06:58:40;;;;;;;15.13;7.32;;;;;;;12.81;100.00;101554.22;4990473;28;20066;-76
2022/10/28 07:01:05;;;;;;;19.27;6.72;;;;;;;12.89;100.00;101553.69;4991707;28;20034;-75
2022/10/28 07:03:33;;;;;;;17.45;7.25;;;;;;;12.91;100.00;101549.84;4991901;28;20038;-75
2022/10/28 07:05:59;;;;;;;18.75;6.45;;;;;;;12.93;100.00;101553.34;4992636;28;20105;-75
2022/10/28 07:08:26;;;;;;;14.60;7.57;;;;;;;12.97;100.00;101563.09;4996984;28;20510;-75
2022/10/28 07:10:56;;;;;;;22.48;8.48;;;;;;;13.12;100.00;101557.50;4991967;28;20104;-75
2022/10/28 07:13:23;;;;;;;16.38;8.05;;;;;;;13.21;100.00;101554.13;4991552;28;20478;-75
2022/10/28 07:15:52;;;;;;;16.95;7.38;;;;;;;13.26;100.00;101561.03;4999283;28;20469;-75
2022/10/28 07:18:19;;;;;;;13.95;6.70;;;;;;;13.32;100.00;101553.34;4994383;28;20034;-75
2022/10/28 07:20:44;;;;;;;14.85;7.20;;;;;;;13.42;100.00;101559.91;4992224;28;20530;-76
2022/10/28 07:23:09;;;;;;;12.27;7.05;;;;;;;13.52;100.00;101560.97;4990461;28;20073;-75
2022/10/28 07:25:35;;;;;;;19.33;7.97;;;;;;;13.56;100.00;101558.88;4991811;28;20049;-75
2022/10/28 07:28:00;;;;;;;17.13;7.00;;;;;;;13.65;100.00;101572.75;4991836;28;20478;-75
2022/10/28 07:30:27;;;;;;;19.30;7.03;;;;;;;13.75;100.00;101578.41;4996150;28;20034;-75
2022/10/28 07:32:53;;;;;;;21.95;8.10;;;;;;;13.87;100.00;101574.78;4996893;28;20030;-75
2022/10/28 07:35:18;;;;;;;17.63;7.35;;;;;;;13.93;100.00;101573.44;4990947;28;20238;-75
2022/10/28 07:37:44;;;;;;;12.93;6.20;;;;;;;14.04;100.00;101574.38;4999555;28;20038;-75
2022/10/28 07:40:10;;;;;;;18.92;6.40;;;;;;;14.19;100.00;101571.47;5009466;28;20042;-75
2022/10/28 07:42:35;;;;;;;10.90;6.30;;;;;;;14.32;100.00;101564.09;4995617;28;20034;-76
2022/10/28 07:45:01;;;;;;;23.50;7.13;;;;;;;14.44;100.00;101562.25;5005834;28;20124;-75
2022/10/28 07:47:26;;;;;;;17.35;7.13;;;;;;;14.63;99.83;101561.72;5000679;28;20486;-75
2022/10/28 07:49:53;;;;;;;15.68;6.50;;;;;;;14.80;99.80;101569.50;5009340;28;20041;-75
2022/10/28 07:52:19;;;;;;;16.13;5.80;;;;;;;14.92;98.94;101559.44;5006165;28;20030;-75
2022/10/28 07:54:45;;;;;;;16.80;6.00;;;;;;;15.05;98.85;101550.09;4991803;28;20383;-75
2022/10/28 07:57:10;;;;;;;21.25;5.85;;;;;;;15.15;97.53;101547.50;4990105;28;20029;-75
2022/10/28 07:59:35;;;;;;;20.02;6.90;;;;;;;15.36;97.32;101552.25;4989529;28;20038;-75
2022/10/28 08:02:02;;;;;;;11.10;5.72;;;;;;;15.51;96.48;101546.38;5000254;28;20113;-75
2022/10/28 08:04:31;;;;;;;18.30;5.90;;;;;;;15.67;95.28;101557.00;4991265;28;20530;-75
2022/10/28 08:06:57;;;;;;;11.40;6.15;;;;;;;15.80;95.53;101563.19;4990918;28;20486;-75
2022/10/28 08:09:23;;;;;;;15.45;6.60;;;;;;;15.95;94.62;101562.94;4989978;28;20069;-74
2022/10/28 08:11:48;;;;;;;17.80;5.80;;;;;;;16.06;95.93;101560.16;4991276;28;20038;-76
2022/10/28 08:14:14;;;;;;;17.33;5.88;;;;;;;16.16;95.25;101554.75;4990933;28;20101;-75
2022/10/28 08:16:39;;;;;;;16.45;6.13;;;;;;;16.27;94.40;101562.94;4993367;28;20018;-75
2022/10/28 08:19:05;;;;;;;16.65;6.13;;;;;;;16.36;94.52;101564.91;5008694;28;20040;-75
2022/10/28 08:21:30;;;;;;;15.15;5.75;;;;;;;16.45;91.87;101577.88;5010164;28;20041;-75
2022/10/28 08:23:55;;;;;;;13.63;5.57;;;;;;;16.51;93.17;101587.47;5009248;28;20074;-75
2022/10/28 08:26:21;;;;;;;12.68;5.43;;;;;;;16.56;89.69;101585.19;5010058;28;20037;-75
2022/10/28 08:28:46;;;;;;;21.50;6.35;;;;;;;16.60;91.73;101589.44;4990451;28;20111;-75
2022/10/28 08:31:12;;;;;;;19.45;6.13;;;;;;;16.59;91.36;101574.81;4999401;28;20032;-75
2022/10/28 08:33:44;;;;;;;19.63;6.57;;;;;;;16.62;90.38;101584.66;4990805;28;20431;-75
2022/10/28 08:36:14;;;;;;;12.88;5.60;;;;;;;16.61;90.44;101577.44;4989823;28;20450;-75
2022/10/28 08:38:42;;;;;;;13.30;5.97;;;;;;;16.65;89.80;101580.78;4989184;28;20038;-75
2022/10/28 08:41:30;;;;;;;15.88;6.10;;;;;;;16.70;90.43;101584.00;4990307;28;20431;-75
2022/10/28 08:44:17;;;;;;;14.77;6.38;;;;;;;16.77;88.43;101588.84;4970180;28;20129;-75
2022/10/28 08:47:01;;;;;;;14.13;6.03;;;;;;;16.85;89.87;101573.59;5004259;28;20114;-75
2022/10/28 08:49:30;;;;;;;18.98;6.22;;;;;;;16.93;89.07;101569.16;4990469;28;20104;-74
2022/10/28 08:52:02;;;;;;;15.40;6.47;;;;;;;17.06;90.10;101574.44;4990912;28;20371;-75
2022/10/28 08:54:49;;;;;;;18.30;5.97;;;;;;;17.18;89.44;101570.63;4990357;28;20061;-75
2022/10/28 08:57:46;;;;;;;16.67;5.53;;;;;;;17.34;87.62;101573.72;5002905;28;20125;-75
2022/10/28 09:00:32;;;;;;;18.20;5.57;;;;;;;17.47;88.76;101573.50;4990100;28;20050;-75
2022/10/28 09:03:07;;;;;;;22.33;6.22;;;;;;;17.59;88.42;101575.16;5002295;28;20045;-75
2022/10/28 09:05:33;;;;;;;20.65;5.82;;;;;;;17.74;87.41;101585.81;5009217;28;20410;-75
2022/10/28 09:08:00;;;;;;;17.05;6.72;;;;;;;17.83;84.56;101583.09;4996574;28;20041;-75
2022/10/28 09:10:47;;;;;;;15.85;5.60;;;;;;;17.94;86.76;101589.50;4989850;28;20030;-75
2022/10/28 09:13:36;;;;;;;17.50;7.30;;;;;;;18.07;87.00;101573.59;4989776;28;20045;-75
2022/10/28 09:16:30;;;;;;;20.20;6.45;;;;;;;18.20;85.79;101578.84;4989634;28;20149;-75
2022/10/28 09:19:01;;;;;;;13.32;5.40;;;;;;;18.33;84.21;101582.19;4989514;28;20128;-75
2022/10/28 09:21:31;;;;;;;18.25;5.53;;;;;;;18.46;83.82;101591.03;4989677;28;20097;-74
2022/10/28 09:24:03;;;;;;;17.40;5.75;;;;;;;18.63;83.33;101586.69;4989515;28;20814;-75
2022/10/28 09:27:02;;;;;;;16.48;4.72;;;;;;;18.82;83.98;101591.34;4987852;28;20049;-75
2022/10/28 09:30:05;;;;;;;15.98;4.90;;;;;;;19.07;83.37;101579.72;4989503;28;20038;-76
2022/10/28 09:32:40;;;;;;;11.60;4.80;;;;;;;19.22;79.42;101591.16;4919585;29;20040;-75
2022/10/28 09:35:12;;;;;;;18.20;5.15;;;;;;;19.28;78.38;101581.38;4979272;28;20402;-75
2022/10/28 09:37:43;;;;;;;13.50;4.85;;;;;;;19.30;78.83;101595.88;4988123;28;20042;-75
2022/10/28 09:40:18;;;;;;;16.52;5.20;;;;;;;19.28;77.38;101590.53;4989529;28;20038;-75
2022/10/28 09:42:56;;;;;;;14.82;5.15;;;;;;;19.29;77.91;101599.69;4990327;28;20474;-75
2022/10/28 09:45:28;;;;;;;15.38;5.22;;;;;;;19.30;77.77;101596.75;4989044;28;20446;-75
2022/10/28 09:48:01;;;;;;;12.73;5.10;;;;;;;19.37;78.11;101600.66;4989297;28;20065;-75
2022/10/28 09:50:31;;;;;;;13.60;5.13;;;;;;;19.44;76.69;101581.59;4989478;28;20281;-75
2022/10/28 09:53:02;;;;;;;19.95;5.07;;;;;;;19.51;78.09;101598.47;4998688;28;20062;-75
2022/10/28 09:55:28;;;;;;;16.58;5.40;;;;;;;19.56;78.83;101594.22;5009204;28;20038;-75
2022/10/28 09:57:54;;;;;;;15.00;5.18;;;;;;;19.61;77.42;101594.66;5015592;28;20351;-74
2022/10/28 10:00:19;;;;;;;13.75;5.43;;;;;;;19.72;76.61;101587.19;5003371;28;20030;-75
2022/10/28 10:02:45;;;;;;;15.50;4.90;;;;;;;19.81;76.66;101600.09;4989685;28;20486;-75
2022/10/28 10:05:17;;;;;;;19.92;4.80;;;;;;;19.91;77.92;101594.50;4989699;28;20074;-75
2022/10/28 10:07:56;;;;;;;14.45;4.97;;;;;;;20.01;77.22;101592.59;4997066;28;20128;-75
2022/10/28 10:10:33;;;;;;;16.83;4.97;;;;;;;20.09;76.91;101587.13;5009237;28;20080;-75
2022/10/28 10:13:02;;;;;;;16.98;5.07;;;;;;;20.09;73.88;101587.13;5008442;28;20042;-75
2022/10/28 10:15:38;;;;;;;15.27;5.05;;;;;;;20.13;74.97;101589.44;4992685;28;20502;-75
2022/10/28 10:18:11;;;;;;;17.15;4.95;;;;;;;20.19;75.01;101593.50;4996826;28;20026;-75
2022/10/28 10:20:57;;;;;;;16.63;5.88;;;;;;;20.31;76.51;101592.22;4990973;28;20822;-75
2022/10/28 10:23:27;;;;;;;18.13;4.95;;;;;;;20.39;74.45;101586.78;4991335;28;20458;-75
2022/10/28 10:25:56;;;;;;;12.63;4.55;;;;;;;20.50;72.16;101595.91;4993141;28;20038;-75
2022/10/28 10:28:22;;;;;;;16.38;4.43;;;;;;;20.58;74.92;101585.81;4995349;28;20026;-75
2022/10/28 10:30:52;;;;;;;22.98;5.10;;;;;;;20.77;71.55;101578.38;4993625;28;20060;-76
2022/10/28 10:33:27;;;;;;;17.05;4.97;;;;;;;20.84;72.24;101590.50;4995059;28;20450;-74
2022/10/28 10:36:12;;;;;;;14.43;4.50;;;;;;;20.93;71.10;101585.91;4990617;28;20050;-75
2022/10/28 10:38:50;;;;;;;16.35;5.20;;;;;;;21.06;73.98;101586.38;4992105;28;20587;-75
2022/10/28 10:41:39;;;;;;;14.73;5.03;;;;;;;21.09;72.51;101580.53;4993821;28;20438;-74
2022/10/28 10:44:19;;;;;;;15.73;4.72;;;;;;;21.17;72.15;101575.06;4995580;28;20034;-75
2022/10/28 10:46:45;;;;;;;21.30;4.82;;;;;;;21.27;69.20;101572.19;4998680;28;20058;-75
2022/10/28 10:49:13;;;;;;;13.00;4.60;;;;;;;21.36;69.90;101565.69;4999005;28;20041;-75
2022/10/28 10:52:11;;;;;;;11.70;5.15;;;;;;;21.45;70.88;101555.50;5007469;28;20129;-74
2022/10/28 10:54:37;;;;;;;14.88;4.95;;;;;;;21.57;68.59;101554.19;4991213;28;20105;-75
2022/10/28 10:57:20;;;;;;;15.45;4.28;;;;;;;21.62;69.00;101560.97;4991552;28;20073;-74
2022/10/28 10:59:50;;;;;;;11.00;4.25;;;;;;;21.68;68.59;101581.59;4991537;28;20049;-74
2022/10/28 11:02:38;;;;;;;18.80;5.28;;;;;;;21.77;68.35;101577.81;4991241;28;20050;-75
2022/10/28 11:05:07;;;;;;;16.17;4.45;;;;;;;21.81;67.78;101572.81;4991535;28;20041;-75
2022/10/28 11:07:33;;;;;;;14.05;4.15;;;;;;;21.96;65.12;101568.38;4990641;28;20045;-74
2022/10/28 11:09:59;;;;;;;14.73;4.60;;;;;;;22.01;64.44;101574.31;4991216;28;20106;-74
2022/10/28 11:12:34;;;;;;;13.40;4.68;;;;;;;22.05;65.44;101566.50;4990771;28;20053;-74
2022/10/28 11:15:18;;;;;;;13.27;3.72;;;;;;;22.13;65.99;101572.09;4990714;28;20046;-75
2022/10/28 11:17:54;;;;;;;12.40;4.13;;;;;;;22.12;64.72;101557.38;4996187;28;20525;-74
2022/10/28 11:20:27;;;;;;;19.40;4.95;;;;;;;22.09;64.73;101559.59;4988936;28;20090;-75
2022/10/28 11:23:30;;;;;;;15.88;4.38;;;;;;;22.05;64.09;101547.97;5004042;28;20453;-74
2022/10/28 11:26:02;;;;;;;19.13;4.28;;;;;;;21.98;64.01;101537.75;4940307;28;20054;-74
2022/10/28 11:28:44;;;;;;;15.82;4.35;;;;;;;21.95;64.98;101540.84;4976972;28;20111;-75